createdAt,value
2018-02-04T00:01:52.921Z,1.76
2018-02-04T00:04:20.412Z,1.85
2018-02-04T00:06:47.862Z,1.72
2018-02-04T00:09:15.349Z,1.81
2018-02-04T00:11:42.793Z,1.85
2018-02-04T00:14:10.228Z,1.87
2018-02-04T00:16:37.687Z,1.97
2018-02-04T00:19:05.149Z,1.96
2018-02-04T00:21:32.625Z,2.00
2018-02-04T00:24:00.054Z,2.05
2018-02-04T00:26:27.511Z,1.96
2018-02-04T00:28:54.977Z,2.03
2018-02-04T00:31:22.413Z,1.91
2018-02-04T00:33:50.209Z,2.00
2018-02-04T00:36:17.673Z,2.00
2018-02-04T00:38:45.121Z,2.07
2018-02-04T00:41:12.589Z,2.07
2018-02-04T00:43:40.029Z,1.98
2018-02-04T00:46:07.674Z,1.94
2018-02-04T00:48:35.113Z,2.10
2018-02-04T00:51:02.557Z,2.12
2018-02-04T00:53:30.025Z,2.21
2018-02-04T00:55:57.461Z,2.18
2018-02-04T00:58:25.025Z,2.19
2018-02-04T01:00:52.461Z,2.23
2018-02-04T01:03:19.900Z,2.25
2018-02-04T01:05:47.356Z,2.29
2018-02-04T01:08:14.796Z,2.32
2018-02-04T01:10:42.273Z,2.35
2018-02-04T01:13:09.716Z,2.37
2018-02-04T01:15:37.168Z,2.34
2018-02-04T01:18:04.684Z,2.38
2018-02-04T01:20:32.122Z,2.38
2018-02-04T01:22:59.731Z,2.34
2018-02-04T01:25:27.168Z,2.30
2018-02-04T01:27:54.613Z,2.22
2018-02-04T01:30:22.077Z,2.22
2018-02-04T01:32:49.522Z,2.21
2018-02-04T01:35:17.001Z,2.19
2018-02-04T01:37:44.484Z,2.22
2018-02-04T01:40:11.937Z,2.23
2018-02-04T01:42:39.410Z,2.16
2018-02-04T01:45:06.849Z,2.15
2018-02-04T01:47:34.317Z,2.15
2018-02-04T01:50:01.799Z,2.14
2018-02-04T01:52:29.237Z,2.14
2018-02-04T01:54:56.712Z,2.09
2018-02-04T01:57:24.144Z,2.06
2018-02-04T01:59:51.609Z,2.07
2018-02-04T02:02:19.069Z,2.18
2018-02-04T02:04:46.549Z,2.06
2018-02-04T02:07:14.010Z,2.04
2018-02-04T02:09:41.466Z,2.17
2018-02-04T02:12:08.949Z,2.14
2018-02-04T02:14:36.400Z,2.17
2018-02-04T02:17:03.837Z,2.04
2018-02-04T02:19:31.342Z,2.08
2018-02-04T02:21:58.796Z,2.12
2018-02-04T02:24:26.454Z,2.32
2018-02-04T02:26:53.908Z,2.20
2018-02-04T02:29:21.346Z,2.20
2018-02-04T02:31:48.802Z,2.18
2018-02-04T02:34:16.253Z,2.19
2018-02-04T02:36:43.729Z,2.09
2018-02-04T02:39:11.164Z,2.12
2018-02-04T02:41:38.609Z,2.13
2018-02-04T02:44:06.072Z,2.16
2018-02-04T02:46:33.521Z,2.14
2018-02-04T02:49:01.323Z,2.16
2018-02-04T02:51:28.760Z,2.11
2018-02-04T02:53:56.200Z,2.01
2018-02-04T02:56:23.673Z,2.09
2018-02-04T02:58:51.115Z,2.19
2018-02-04T03:01:18.710Z,1.98
2018-02-04T03:03:46.154Z,2.07
2018-02-04T03:06:13.588Z,2.05
2018-02-04T03:08:41.057Z,2.00
2018-02-04T03:11:08.497Z,2.03
2018-02-04T03:13:36.095Z,1.99
2018-02-04T03:16:03.572Z,2.04
2018-02-04T03:18:31.011Z,2.01
2018-02-04T03:20:58.468Z,1.97
2018-02-04T03:23:25.904Z,1.99
2018-02-04T03:25:53.377Z,2.05
2018-02-04T03:28:20.821Z,2.04
2018-02-04T03:30:48.263Z,2.11
2018-02-04T03:33:15.728Z,2.00
2018-02-04T03:35:43.165Z,2.04
2018-02-04T03:38:10.921Z,1.99
2018-02-04T03:40:38.370Z,1.98
2018-02-04T03:43:05.829Z,1.91
2018-02-04T03:45:33.293Z,1.98
2018-02-04T03:48:00.740Z,2.05
2018-02-04T03:50:28.273Z,2.06
2018-02-04T03:52:55.713Z,2.11
2018-02-04T03:55:23.177Z,2.32
2018-02-04T03:57:50.648Z,2.16
2018-02-04T04:00:18.087Z,2.08
2018-02-04T04:02:45.836Z,2.06
2018-02-04T04:05:13.281Z,2.00
2018-02-04T04:07:40.725Z,2.03
2018-02-04T04:10:08.210Z,2.03
2018-02-04T04:12:35.664Z,2.09
2018-02-04T04:15:03.137Z,1.99
2018-02-04T04:17:30.628Z,1.99
2018-02-04T04:19:58.070Z,2.06
2018-02-04T04:22:25.544Z,2.08
2018-02-04T04:24:52.981Z,2.02
2018-02-04T04:27:20.460Z,2.12
2018-02-04T04:29:47.900Z,2.06
2018-02-04T04:32:15.344Z,2.20
2018-02-04T04:34:42.804Z,2.05
2018-02-04T04:37:10.253Z,2.03
2018-02-04T04:39:37.889Z,2.11
2018-02-04T04:42:05.325Z,2.13
2018-02-04T04:44:32.764Z,2.12
2018-02-04T04:47:00.720Z,2.20
2018-02-04T04:49:28.288Z,2.16
2018-02-04T04:51:55.798Z,2.16
2018-02-04T04:54:23.240Z,2.12
2018-02-04T04:56:50.680Z,2.18
2018-02-04T04:59:18.144Z,2.19
2018-02-04T05:01:45.593Z,2.21
2018-02-04T05:04:13.060Z,2.26
2018-02-04T05:06:40.512Z,2.25
2018-02-04T05:09:07.965Z,2.28
2018-02-04T05:11:35.438Z,2.28
2018-02-04T05:14:02.881Z,2.33
2018-02-04T05:16:30.680Z,2.43
2018-02-04T05:18:58.139Z,2.62
2018-02-04T05:21:25.584Z,2.65
2018-02-04T05:23:53.121Z,2.97
2018-02-04T05:26:20.570Z,2.89
2018-02-04T05:28:48.448Z,2.94
2018-02-04T05:31:15.904Z,2.66
2018-02-04T05:33:43.355Z,2.65
2018-02-04T05:36:10.822Z,2.66
2018-02-04T05:38:38.269Z,2.58
2018-02-04T05:41:05.939Z,2.62
2018-02-04T05:43:33.396Z,2.61
2018-02-04T05:46:00.845Z,2.57
2018-02-04T05:48:28.309Z,2.66
2018-02-04T05:50:55.773Z,2.62
2018-02-04T05:53:23.344Z,2.58
2018-02-04T05:55:50.797Z,2.59
2018-02-04T05:58:18.239Z,2.47
2018-02-04T06:00:45.705Z,2.66
2018-02-04T06:03:13.151Z,2.50
2018-02-04T06:05:40.808Z,2.48
2018-02-04T06:08:08.254Z,2.33
2018-02-04T06:10:35.696Z,2.43
2018-02-04T06:13:03.166Z,2.16
2018-02-04T06:15:30.646Z,2.26
2018-02-04T06:17:58.336Z,2.22
2018-02-04T06:20:25.808Z,2.58
2018-02-04T06:22:53.258Z,2.66
2018-02-04T06:25:20.724Z,2.67
2018-02-04T06:27:48.168Z,2.82
2018-02-04T06:30:15.653Z,2.88
2018-02-04T06:32:43.093Z,2.86
2018-02-04T06:35:10.547Z,2.75
2018-02-04T06:37:38.053Z,2.72
2018-02-04T06:40:05.508Z,2.69
2018-02-04T06:42:33.009Z,2.81
2018-02-04T06:45:00.465Z,2.86
2018-02-04T06:47:27.941Z,2.80
2018-02-04T06:49:55.409Z,2.85
2018-02-04T06:52:22.857Z,2.79
2018-02-04T06:54:50.352Z,2.86
2018-02-04T06:57:17.813Z,2.87
2018-02-04T06:59:45.257Z,2.84
2018-02-04T07:02:12.749Z,2.88
2018-02-04T07:04:40.204Z,3.06
2018-02-04T07:07:07.865Z,3.00
2018-02-04T07:09:35.337Z,2.96
2018-02-04T07:12:02.773Z,2.96
2018-02-04T07:14:30.240Z,3.27
2018-02-04T07:16:57.688Z,3.48
2018-02-04T07:19:25.336Z,3.50
2018-02-04T07:21:52.792Z,3.55
2018-02-04T07:24:20.256Z,3.54
2018-02-04T07:26:47.724Z,3.43
2018-02-04T07:29:15.212Z,3.37
2018-02-04T07:31:42.701Z,3.39
2018-02-04T07:34:10.144Z,3.25
2018-02-04T07:36:37.588Z,3.25
2018-02-04T07:39:05.045Z,3.24
2018-02-04T07:41:32.516Z,3.18
2018-02-04T07:44:00.153Z,3.22
2018-02-04T07:46:28.532Z,3.15
2018-02-04T07:48:55.986Z,3.11
2018-02-04T07:51:23.462Z,3.20
2018-02-04T07:53:51.056Z,3.17
2018-02-04T07:56:18.517Z,3.18
2018-02-04T07:58:45.958Z,3.31
2018-02-04T08:01:13.397Z,3.20
2018-02-04T08:03:40.857Z,2.99
2018-02-04T08:06:08.297Z,3.00
2018-02-04T08:08:35.786Z,2.97
2018-02-04T08:11:03.225Z,3.03
2018-02-04T08:13:30.661Z,3.14
2018-02-04T08:15:58.117Z,3.05
2018-02-04T08:18:25.617Z,3.00
2018-02-04T08:20:53.474Z,2.96
2018-02-04T08:23:20.913Z,2.87
2018-02-04T08:25:48.355Z,2.77
2018-02-04T08:28:15.818Z,2.65
2018-02-04T08:30:43.253Z,2.62
2018-02-04T08:33:10.965Z,2.55
2018-02-04T08:35:38.461Z,2.57
2018-02-04T08:38:05.874Z,2.53
2018-02-04T08:40:33.344Z,2.41
2018-02-04T08:43:00.791Z,2.57
2018-02-04T08:45:28.448Z,2.55
2018-02-04T08:47:55.896Z,2.64
2018-02-04T08:50:23.349Z,2.53
2018-02-04T08:52:50.813Z,2.52
2018-02-04T08:55:18.284Z,2.51
2018-02-04T08:57:45.937Z,2.49
2018-02-04T09:00:13.373Z,2.47
2018-02-04T09:02:40.809Z,2.46
2018-02-04T09:05:08.269Z,2.48
2018-02-04T09:07:35.714Z,2.56
2018-02-04T09:10:03.381Z,2.68
2018-02-04T09:12:30.788Z,2.65
2018-02-04T09:17:50.801Z,2.67
2018-02-04T09:20:18.341Z,2.72
2018-02-04T09:22:45.825Z,2.77
2018-02-04T09:25:13.281Z,2.74
2018-02-04T09:27:40.736Z,2.69
2018-02-04T09:30:08.193Z,2.74
2018-02-04T09:32:35.632Z,2.74
2018-02-04T09:35:03.280Z,2.57
2018-02-04T09:37:30.898Z,2.85
2018-02-04T09:39:58.357Z,2.77
2018-02-04T09:42:25.818Z,2.79
2018-02-04T09:44:53.281Z,2.74
2018-02-04T09:47:20.888Z,2.87
2018-02-04T09:49:48.330Z,3.04
2018-02-04T09:52:15.766Z,3.02
2018-02-04T09:54:43.244Z,3.10
2018-02-04T09:57:10.705Z,3.06
2018-02-04T09:59:38.379Z,3.09
2018-02-04T10:02:05.817Z,3.01
2018-02-04T10:04:33.262Z,2.85
2018-02-04T10:07:00.736Z,2.87
2018-02-04T10:09:28.189Z,2.96
2018-02-04T10:11:55.964Z,2.82
2018-02-04T10:14:23.421Z,2.82
2018-02-04T10:16:50.865Z,2.73
2018-02-04T10:19:18.358Z,2.94
2018-02-04T10:21:46.354Z,2.97
2018-02-04T10:24:15.400Z,2.84
2018-02-04T10:26:43.404Z,2.73
2018-02-04T10:29:11.145Z,2.65
2018-02-04T10:31:39.873Z,2.79
2018-02-04T10:34:08.120Z,2.77
2018-02-04T10:36:36.239Z,2.60
2018-02-04T10:39:03.963Z,2.71
2018-02-04T10:41:32.379Z,2.80
2018-02-04T10:44:00.401Z,2.71
2018-02-04T10:46:27.845Z,2.60
2018-02-04T10:48:55.507Z,2.62
2018-02-04T10:51:28.556Z,2.64
2018-02-04T10:53:56.228Z,2.69
2018-02-04T10:56:23.693Z,2.71
2018-02-04T10:58:51.172Z,2.64
2018-02-04T11:01:18.702Z,2.59
2018-02-04T11:03:46.189Z,2.64
2018-02-04T11:06:13.949Z,2.61
2018-02-04T11:08:41.401Z,2.54
2018-02-04T11:11:08.838Z,2.38
2018-02-04T11:13:36.300Z,2.51
2018-02-04T11:16:03.769Z,2.42
2018-02-04T11:18:31.436Z,2.58
2018-02-04T11:20:58.873Z,2.51
2018-02-04T11:23:26.321Z,2.51
2018-02-04T11:25:53.794Z,2.41
2018-02-04T11:28:21.284Z,2.52
2018-02-04T11:30:49.003Z,2.57
2018-02-04T11:33:16.448Z,2.71
2018-02-04T11:35:43.889Z,2.92
2018-02-04T11:38:11.356Z,2.79
2018-02-04T11:40:38.793Z,2.57
2018-02-04T11:43:06.264Z,2.66
2018-02-04T11:45:33.700Z,2.65
2018-02-04T11:48:01.144Z,2.66
2018-02-04T11:50:28.650Z,2.63
2018-02-04T11:52:56.132Z,2.63
2018-02-04T11:55:23.593Z,2.66
2018-02-04T11:57:51.029Z,2.66
2018-02-04T12:00:18.471Z,2.67
2018-02-04T12:02:45.997Z,2.55
2018-02-04T12:05:13.433Z,2.58
2018-02-04T12:07:41.072Z,2.65
2018-02-04T12:10:08.513Z,2.67
2018-02-04T12:12:35.949Z,2.46
2018-02-04T12:15:03.433Z,2.29
2018-02-04T12:17:30.874Z,2.27
2018-02-04T12:19:58.433Z,2.27
2018-02-04T12:22:25.868Z,2.41
2018-02-04T12:24:53.309Z,2.63
2018-02-04T12:27:20.768Z,2.56
2018-02-04T12:29:48.205Z,2.45
2018-02-04T12:32:16.941Z,2.53
2018-02-04T12:34:44.381Z,2.61
2018-02-04T12:37:11.833Z,2.40
2018-02-04T12:39:39.293Z,2.47
2018-02-04T12:42:06.729Z,2.56
2018-02-04T12:44:34.545Z,2.57
2018-02-04T12:47:01.996Z,2.50
2018-02-04T12:49:29.432Z,2.81
2018-02-04T12:51:56.905Z,2.53
2018-02-04T12:54:24.348Z,2.53
2018-02-04T12:56:52.025Z,2.53
2018-02-04T12:59:19.456Z,2.47
2018-02-04T13:01:46.897Z,2.48
2018-02-04T13:04:14.364Z,2.56
2018-02-04T13:06:41.857Z,2.62
2018-02-04T13:09:09.664Z,2.57
2018-02-04T13:11:37.187Z,2.68
2018-02-04T13:14:04.622Z,3.13
2018-02-04T13:16:32.334Z,3.02
2018-02-04T13:18:59.776Z,2.81
2018-02-04T13:21:27.263Z,2.69
2018-02-04T13:23:54.728Z,2.77
2018-02-04T13:26:22.164Z,2.73
2018-02-04T13:28:49.629Z,2.59
2018-02-04T13:31:17.069Z,2.59
2018-02-04T13:33:44.689Z,2.42
2018-02-04T13:36:12.125Z,2.48
2018-02-04T13:38:39.612Z,2.64
2018-02-04T13:41:07.069Z,2.61
2018-02-04T13:43:34.521Z,2.53
2018-02-04T13:46:02.001Z,2.45
2018-02-04T13:48:29.454Z,2.55
2018-02-04T13:50:56.913Z,2.48
2018-02-04T13:53:24.401Z,2.55
2018-02-04T13:55:51.847Z,2.55
2018-02-04T13:58:19.329Z,2.41
2018-02-04T14:00:46.780Z,2.53
2018-02-04T14:03:14.225Z,2.45
2018-02-04T14:05:41.710Z,2.51
2018-02-04T14:08:09.167Z,2.39
2018-02-04T14:10:37.042Z,2.31
2018-02-04T14:13:04.485Z,2.44
2018-02-04T14:15:31.921Z,2.50
2018-02-04T14:17:59.388Z,2.30
2018-02-04T14:20:26.833Z,2.37
2018-02-04T14:22:54.441Z,2.27
2018-02-04T14:25:21.885Z,1.98
2018-02-04T14:27:49.398Z,2.23
2018-02-04T14:30:16.868Z,2.26
2018-02-04T14:32:44.320Z,2.44
2018-02-04T14:35:11.896Z,2.50
2018-02-04T14:37:39.337Z,2.30
2018-02-04T14:40:06.789Z,2.45
2018-02-04T14:42:34.246Z,2.47
2018-02-04T14:45:01.711Z,2.58
2018-02-04T14:47:29.201Z,2.49
2018-02-04T14:49:56.645Z,2.64
2018-02-04T14:52:24.116Z,2.77
2018-02-04T14:54:51.576Z,2.68
2018-02-04T14:57:19.013Z,2.77
2018-02-04T14:59:46.692Z,2.57
2018-02-04T15:02:14.225Z,3.04
2018-02-04T15:04:41.661Z,3.34
2018-02-04T15:07:09.121Z,2.76
2018-02-04T15:09:36.566Z,2.66
2018-02-04T15:12:04.207Z,2.58
2018-02-04T15:14:31.646Z,2.42
2018-02-04T15:16:59.092Z,2.44
2018-02-04T15:19:26.545Z,2.32
2018-02-04T15:21:53.992Z,2.40
2018-02-04T15:24:21.481Z,2.32
2018-02-04T15:26:48.914Z,2.42
2018-02-04T15:29:16.357Z,2.48
2018-02-04T15:31:43.813Z,2.34
2018-02-04T15:34:11.245Z,2.53
2018-02-04T15:36:38.843Z,2.48
2018-02-04T15:39:06.290Z,2.45
2018-02-04T15:41:33.724Z,2.42
2018-02-04T15:44:01.208Z,2.41
2018-02-04T15:46:28.657Z,2.52
2018-02-04T15:48:56.141Z,2.38
2018-02-04T15:51:23.581Z,2.52
2018-02-04T15:53:51.041Z,2.50
2018-02-04T15:56:18.505Z,2.55
2018-02-04T15:58:45.951Z,2.37
2018-02-04T16:01:13.608Z,2.36
2018-02-04T16:03:41.057Z,2.41
2018-02-04T16:06:08.501Z,2.25
2018-02-04T16:08:35.964Z,2.31
2018-02-04T16:11:03.404Z,2.22
2018-02-04T16:13:30.994Z,2.28
2018-02-04T16:15:58.433Z,2.53
2018-02-04T16:18:25.894Z,2.40
2018-02-04T16:20:53.393Z,2.29
2018-02-04T16:23:20.833Z,2.28
2018-02-04T16:25:48.488Z,2.28
2018-02-04T16:28:15.930Z,2.21
2018-02-04T16:30:43.369Z,2.19
2018-02-04T16:33:10.828Z,2.28
2018-02-04T16:35:38.277Z,2.18
2018-02-04T16:38:05.869Z,2.23
2018-02-04T16:40:33.323Z,2.24
2018-02-04T16:43:00.762Z,2.16
2018-02-04T16:45:28.236Z,2.13
2018-02-04T16:47:55.697Z,2.00
2018-02-04T16:50:23.352Z,2.13
2018-02-04T16:52:50.798Z,2.19
2018-02-04T16:55:18.289Z,2.03
2018-02-04T16:57:45.756Z,2.06
2018-02-04T17:00:13.203Z,2.04
2018-02-04T17:02:40.949Z,1.96
2018-02-04T17:05:08.410Z,2.05
2018-02-04T17:07:35.859Z,2.15
2018-02-04T17:10:03.317Z,2.04
2018-02-04T17:12:30.753Z,1.98
2018-02-04T17:14:58.437Z,1.95
2018-02-04T17:17:25.898Z,1.97
2018-02-04T17:19:53.337Z,1.99
2018-02-04T17:22:20.802Z,1.93
2018-02-04T17:24:48.260Z,1.87
2018-02-04T17:27:15.728Z,1.92
2018-02-04T17:29:43.177Z,1.98
2018-02-04T17:32:10.612Z,1.72
2018-02-04T17:34:38.113Z,1.87
2018-02-04T17:37:05.549Z,1.88
2018-02-04T17:39:33.414Z,1.69
2018-02-04T17:42:00.864Z,1.75
2018-02-04T17:44:28.309Z,1.74
2018-02-04T17:46:55.784Z,1.76
2018-02-04T17:49:23.224Z,1.78
2018-02-04T17:51:50.704Z,1.67
2018-02-04T17:54:18.148Z,1.83
2018-02-04T17:56:45.580Z,1.61
2018-02-04T17:59:13.069Z,1.61
2018-02-04T18:01:40.501Z,1.55
2018-02-04T18:04:08.289Z,1.65
2018-02-04T18:06:35.736Z,1.72
2018-02-04T18:09:03.177Z,1.53
2018-02-04T18:11:30.634Z,1.53
2018-02-04T18:13:58.078Z,1.62
2018-02-04T18:16:25.553Z,1.69
2018-02-04T18:18:52.993Z,1.73
2018-02-04T18:21:20.433Z,1.65
2018-02-04T18:23:47.888Z,1.42
2018-02-04T18:26:15.324Z,1.65
2018-02-04T18:28:42.997Z,1.50
2018-02-04T18:31:10.501Z,1.45
2018-02-04T18:33:37.910Z,1.60
2018-02-04T18:36:05.374Z,1.54
2018-02-04T18:38:32.833Z,1.46
2018-02-04T18:41:00.320Z,1.44
2018-02-04T18:43:27.758Z,1.55
2018-02-04T18:45:55.213Z,1.32
2018-02-04T18:48:22.700Z,1.37
2018-02-04T18:50:50.137Z,1.37
2018-02-04T18:53:17.701Z,1.41
2018-02-04T18:55:45.141Z,1.39
2018-02-04T18:58:12.589Z,1.56
2018-02-04T19:00:40.065Z,1.54
2018-02-04T19:03:07.546Z,1.61
2018-02-04T19:05:35.524Z,1.66
2018-02-04T19:08:03.005Z,1.56
2018-02-04T19:10:30.608Z,1.79
2018-02-04T19:12:58.127Z,1.52
2018-02-04T19:15:25.576Z,1.52
2018-02-04T19:17:53.102Z,1.41
2018-02-04T19:20:20.546Z,1.34
2018-02-04T19:22:47.985Z,1.43
2018-02-04T19:25:15.445Z,1.20
2018-02-04T19:27:42.886Z,1.36
2018-02-04T19:30:10.936Z,1.30
2018-02-04T19:32:38.381Z,1.34
2018-02-04T19:35:06.259Z,1.32
2018-02-04T19:37:33.740Z,1.39
2018-02-04T19:40:01.181Z,1.43
2018-02-04T19:42:28.786Z,1.38
2018-02-04T19:44:56.320Z,1.53
2018-02-04T19:47:23.765Z,1.65
2018-02-04T19:49:51.247Z,1.71
2018-02-04T19:52:18.718Z,1.72
2018-02-04T19:54:46.273Z,1.82
2018-02-04T19:57:13.742Z,1.79
2018-02-04T19:59:41.200Z,1.72
2018-02-04T20:02:09.260Z,1.67
2018-02-04T20:04:36.698Z,1.58
2018-02-04T20:07:04.234Z,1.49
2018-02-04T20:09:31.704Z,1.38
2018-02-04T20:11:59.484Z,1.47
2018-02-04T20:14:26.997Z,1.39
2018-02-04T20:16:54.436Z,1.44
2018-02-04T20:19:22.253Z,1.38
2018-02-04T20:21:49.692Z,1.29
2018-02-04T20:24:17.135Z,1.45
2018-02-04T20:26:45.346Z,1.57
2018-02-04T20:29:12.815Z,1.42
2018-02-04T20:31:40.297Z,1.35
2018-02-04T20:34:19.689Z,1.47
2018-02-04T20:36:47.164Z,1.39
2018-02-04T20:39:14.605Z,1.45
2018-02-04T20:41:42.059Z,1.49
2018-02-04T20:44:09.529Z,1.32
2018-02-04T20:46:36.970Z,1.36
2018-02-04T20:49:04.468Z,1.44
2018-02-04T20:51:31.908Z,1.39
2018-02-04T20:53:59.347Z,1.44
2018-02-04T20:56:26.805Z,1.44
2018-02-04T20:58:54.237Z,1.39
2018-02-04T21:01:21.837Z,1.40
2018-02-04T21:03:49.277Z,1.59
2018-02-04T21:06:16.709Z,1.44
2018-02-04T21:08:44.170Z,1.45
2018-02-04T21:11:11.621Z,1.44
2018-02-04T21:13:39.216Z,1.41
2018-02-04T21:16:06.652Z,1.39
2018-02-04T21:18:34.093Z,1.39
2018-02-04T21:21:01.553Z,1.39
2018-02-04T21:23:28.997Z,1.42
2018-02-04T21:25:56.707Z,1.40
2018-02-04T21:28:24.145Z,1.38
2018-02-04T21:30:51.588Z,1.25
2018-02-04T21:33:19.057Z,1.34
2018-02-04T21:35:46.527Z,1.27
2018-02-04T21:38:14.194Z,1.10
2018-02-04T21:40:41.660Z,0.95
2018-02-04T21:43:09.108Z,1.00
2018-02-04T21:45:36.565Z,0.83
2018-02-04T21:48:04.017Z,0.86
2018-02-04T21:50:31.448Z,0.79
2018-02-04T21:52:58.913Z,0.66
2018-02-04T21:55:26.391Z,0.46
2018-02-04T21:57:53.832Z,0.49
2018-02-04T22:00:21.289Z,0.56
2018-02-04T22:02:48.728Z,0.38
2018-02-04T22:05:16.197Z,0.45
2018-02-04T22:07:43.658Z,0.56
2018-02-04T22:10:11.121Z,0.48
2018-02-04T22:12:38.560Z,0.45
2018-02-04T22:15:06.161Z,0.54
2018-02-04T22:17:33.618Z,0.58
2018-02-04T22:20:01.091Z,0.52
2018-02-04T22:22:28.772Z,0.62
2018-02-04T22:24:56.222Z,0.56
2018-02-04T22:27:23.664Z,0.59
2018-02-04T22:29:51.285Z,0.55
2018-02-04T22:32:18.726Z,0.53
2018-02-04T22:34:46.156Z,0.51
2018-02-04T22:37:13.642Z,0.57
2018-02-04T22:39:41.083Z,0.72
2018-02-04T22:42:08.532Z,0.55
2018-02-04T22:44:35.989Z,0.63
2018-02-04T22:47:03.429Z,0.43
2018-02-04T22:49:30.869Z,0.48
2018-02-04T22:51:58.433Z,0.48
2018-02-04T22:54:25.869Z,0.63
2018-02-04T22:56:53.325Z,0.47
2018-02-04T22:59:20.781Z,0.53
2018-02-04T23:01:48.217Z,0.59
2018-02-04T23:04:15.880Z,0.65
2018-02-04T23:06:43.321Z,0.69
2018-02-04T23:09:10.756Z,0.80
2018-02-04T23:11:38.224Z,0.63
2018-02-04T23:14:05.689Z,0.52
2018-02-04T23:16:33.268Z,0.69
2018-02-04T23:19:00.784Z,0.53
2018-02-04T23:21:28.224Z,0.61
2018-02-04T23:23:55.676Z,0.68
2018-02-04T23:26:23.109Z,0.74
2018-02-04T23:28:50.759Z,0.69
2018-02-04T23:31:18.204Z,0.66
2018-02-04T23:33:45.655Z,0.71
2018-02-04T23:36:13.133Z,0.81
2018-02-04T23:38:40.569Z,0.73
2018-02-04T23:41:08.244Z,0.65
2018-02-04T23:43:35.702Z,0.80
2018-02-04T23:46:03.145Z,0.78
2018-02-04T23:48:30.596Z,0.67
2018-02-04T23:50:58.033Z,0.78
2018-02-04T23:53:25.736Z,0.71
2018-02-04T23:55:53.177Z,0.66
2018-02-04T23:58:20.608Z,0.73
